sensor_id;sensor_type;location;lat;lon;timestamp;P1;durP1;ratioP1;P2;durP2;ratioP2
31206;SDS011;17834;52.992;8.856;2022-12-16T00:00:27;28.95;;;14.10;;
31206;SDS011;17834;52.992;8.856;2022-12-16T00:02:53;30.35;;;14.40;;
31206;SDS011;17834;52.992;8.856;2022-12-16T00:05:19;34.85;;;14.13;;
31206;SDS011;17834;52.992;8.856;2022-12-16T00:07:46;35.22;;;15.60;;
31206;SDS011;17834;52.992;8.856;2022-12-16T00:10:12;33.47;;;16.35;;
31206;SDS011;17834;52.992;8.856;2022-12-16T00:12:38;36.47;;;17.33;;
31206;SDS011;17834;52.992;8.856;2022-12-16T00:15:04;37.47;;;16.15;;
31206;SDS011;17834;52.992;8.856;2022-12-16T00:17:30;35.63;;;16.35;;
31206;SDS011;17834;52.992;8.856;2022-12-16T00:19:56;41.42;;;16.73;;
31206;SDS011;17834;52.992;8.856;2022-12-16T00:22:22;32.15;;;16.13;;
31206;SDS011;17834;52.992;8.856;2022-12-16T00:24:48;33.00;;;16.02;;
31206;SDS011;17834;52.992;8.856;2022-12-16T00:27:14;35.63;;;17.00;;
31206;SDS011;17834;52.992;8.856;2022-12-16T00:29:40;34.50;;;15.57;;
31206;SDS011;17834;52.992;8.856;2022-12-16T00:32:06;35.33;;;16.15;;
31206;SDS011;17834;52.992;8.856;2022-12-16T00:34:32;31.50;;;14.55;;
31206;SDS011;17834;52.992;8.856;2022-12-16T00:36:58;35.70;;;15.88;;
31206;SDS011;17834;52.992;8.856;2022-12-16T00:39:24;34.75;;;15.05;;
31206;SDS011;17834;52.992;8.856;2022-12-16T00:41:50;34.00;;;15.75;;
31206;SDS011;17834;52.992;8.856;2022-12-16T00:44:16;31.35;;;15.75;;
31206;SDS011;17834;52.992;8.856;2022-12-16T00:46:42;27.63;;;14.95;;
31206;SDS011;17834;52.992;8.856;2022-12-16T00:49:08;34.55;;;16.42;;
31206;SDS011;17834;52.992;8.856;2022-12-16T00:51:34;37.90;;;16.63;;
31206;SDS011;17834;52.992;8.856;2022-12-16T00:54:00;39.45;;;17.40;;
31206;SDS011;17834;52.992;8.856;2022-12-16T00:56:26;39.28;;;17.35;;
31206;SDS011;17834;52.992;8.856;2022-12-16T00:58:52;29.85;;;14.23;;
31206;SDS011;17834;52.992;8.856;2022-12-16T01:01:18;31.88;;;16.35;;
31206;SDS011;17834;52.992;8.856;2022-12-16T01:03:44;40.25;;;17.70;;
31206;SDS011;17834;52.992;8.856;2022-12-16T01:06:12;39.10;;;17.50;;
31206;SDS011;17834;52.992;8.856;2022-12-16T01:08:38;31.70;;;15.23;;
31206;SDS011;17834;52.992;8.856;2022-12-16T01:11:04;35.50;;;16.63;;
31206;SDS011;17834;52.992;8.856;2022-12-16T01:13:30;34.63;;;16.63;;
31206;SDS011;17834;52.992;8.856;2022-12-16T01:16:00;35.10;;;15.85;;
31206;SDS011;17834;52.992;8.856;2022-12-16T01:18:26;34.72;;;16.00;;
31206;SDS011;17834;52.992;8.856;2022-12-16T01:20:52;37.10;;;16.80;;
31206;SDS011;17834;52.992;8.856;2022-12-16T01:23:18;30.33;;;15.38;;
31206;SDS011;17834;52.992;8.856;2022-12-16T01:25:44;44.65;;;16.77;;
31206;SDS011;17834;52.992;8.856;2022-12-16T01:28:10;43.88;;;17.20;;
31206;SDS011;17834;52.992;8.856;2022-12-16T01:30:36;37.38;;;16.00;;
31206;SDS011;17834;52.992;8.856;2022-12-16T01:33:02;36.35;;;17.27;;
31206;SDS011;17834;52.992;8.856;2022-12-16T01:35:28;33.90;;;17.33;;
31206;SDS011;17834;52.992;8.856;2022-12-16T01:37:54;40.53;;;16.83;;
31206;SDS011;17834;52.992;8.856;2022-12-16T01:40:21;36.55;;;16.15;;
31206;SDS011;17834;52.992;8.856;2022-12-16T01:42:48;36.55;;;17.02;;
31206;SDS011;17834;52.992;8.856;2022-12-16T01:47:51;41.55;;;17.75;;
31206;SDS011;17834;52.992;8.856;2022-12-16T01:50:19;41.40;;;19.00;;
31206;SDS011;17834;52.992;8.856;2022-12-16T01:52:47;34.67;;;17.77;;
31206;SDS011;17834;52.992;8.856;2022-12-16T01:55:14;41.33;;;18.38;;
31206;SDS011;17834;52.992;8.856;2022-12-16T01:57:47;41.72;;;19.10;;
31206;SDS011;17834;52.992;8.856;2022-12-16T02:00:13;39.95;;;18.40;;
31206;SDS011;17834;52.992;8.856;2022-12-16T02:02:41;42.85;;;18.08;;
31206;SDS011;17834;52.992;8.856;2022-12-16T02:05:08;41.85;;;17.08;;
31206;SDS011;17834;52.992;8.856;2022-12-16T02:08:09;37.97;;;17.70;;
31206;SDS011;17834;52.992;8.856;2022-12-16T02:16:07;33.75;;;16.35;;
31206;SDS011;17834;52.992;8.856;2022-12-16T02:18:39;45.78;;;17.45;;
31206;SDS011;17834;52.992;8.856;2022-12-16T02:39:03;33.88;;;17.17;;
31206;SDS011;17834;52.992;8.856;2022-12-16T02:41:43;37.35;;;16.63;;
31206;SDS011;17834;52.992;8.856;2022-12-16T02:44:13;31.05;;;15.30;;
31206;SDS011;17834;52.992;8.856;2022-12-16T02:46:41;33.83;;;16.02;;
31206;SDS011;17834;52.992;8.856;2022-12-16T02:49:08;31.38;;;15.00;;
31206;SDS011;17834;52.992;8.856;2022-12-16T02:51:54;41.40;;;17.35;;
31206;SDS011;17834;52.992;8.856;2022-12-16T02:54:20;32.05;;;14.32;;
31206;SDS011;17834;52.992;8.856;2022-12-16T03:04:21;35.08;;;16.60;;
31206;SDS011;17834;52.992;8.856;2022-12-16T03:06:49;34.08;;;15.50;;
31206;SDS011;17834;52.992;8.856;2022-12-16T03:09:19;31.80;;;15.25;;
31206;SDS011;17834;52.992;8.856;2022-12-16T03:11:46;38.47;;;15.57;;
31206;SDS011;17834;52.992;8.856;2022-12-16T03:14:13;35.28;;;16.13;;
31206;SDS011;17834;52.992;8.856;2022-12-16T03:16:40;34.00;;;14.35;;
31206;SDS011;17834;52.992;8.856;2022-12-16T03:19:07;37.63;;;16.85;;
31206;SDS011;17834;52.992;8.856;2022-12-16T03:21:40;38.13;;;14.90;;
31206;SDS011;17834;52.992;8.856;2022-12-16T03:24:08;34.60;;;15.10;;
31206;SDS011;17834;52.992;8.856;2022-12-16T03:26:50;34.55;;;14.93;;
31206;SDS011;17834;52.992;8.856;2022-12-16T03:29:26;36.67;;;15.57;;
31206;SDS011;17834;52.992;8.856;2022-12-16T03:31:56;32.38;;;15.18;;
31206;SDS011;17834;52.992;8.856;2022-12-16T03:34:42;34.35;;;17.10;;
31206;SDS011;17834;52.992;8.856;2022-12-16T03:37:11;32.40;;;14.10;;
31206;SDS011;17834;52.992;8.856;2022-12-16T03:39:39;30.88;;;13.57;;
31206;SDS011;17834;52.992;8.856;2022-12-16T03:42:06;29.00;;;14.23;;
31206;SDS011;17834;52.992;8.856;2022-12-16T03:44:33;28.08;;;14.60;;
31206;SDS011;17834;52.992;8.856;2022-12-16T03:46:59;33.40;;;13.80;;
31206;SDS011;17834;52.992;8.856;2022-12-16T03:49:26;36.67;;;14.55;;
31206;SDS011;17834;52.992;8.856;2022-12-16T03:51:52;38.55;;;15.48;;
31206;SDS011;17834;52.992;8.856;2022-12-16T03:54:19;34.00;;;14.82;;
31206;SDS011;17834;52.992;8.856;2022-12-16T03:56:45;31.35;;;14.02;;
31206;SDS011;17834;52.992;8.856;2022-12-16T03:59:11;28.73;;;15.95;;
31206;SDS011;17834;52.992;8.856;2022-12-16T04:01:38;33.83;;;16.05;;
31206;SDS011;17834;52.992;8.856;2022-12-16T04:04:04;31.20;;;13.18;;
31206;SDS011;17834;52.992;8.856;2022-12-16T04:06:30;30.70;;;14.15;;
31206;SDS011;17834;52.992;8.856;2022-12-16T04:08:56;31.63;;;13.63;;
31206;SDS011;17834;52.992;8.856;2022-12-16T04:11:22;30.90;;;16.55;;
31206;SDS011;17834;52.992;8.856;2022-12-16T04:14:07;37.35;;;16.10;;
31206;SDS011;17834;52.992;8.856;2022-12-16T04:16:52;31.33;;;13.27;;
31206;SDS011;17834;52.992;8.856;2022-12-16T04:19:37;36.73;;;14.37;;
31206;SDS011;17834;52.992;8.856;2022-12-16T04:22:23;32.15;;;14.93;;
31206;SDS011;17834;52.992;8.856;2022-12-16T04:25:11;31.40;;;14.63;;
31206;SDS011;17834;52.992;8.856;2022-12-16T04:27:38;30.00;;;15.10;;
31206;SDS011;17834;52.992;8.856;2022-12-16T04:30:11;32.70;;;14.15;;
31206;SDS011;17834;52.992;8.856;2022-12-16T04:32:43;35.60;;;14.65;;
31206;SDS011;17834;52.992;8.856;2022-12-16T04:35:28;32.30;;;15.27;;
31206;SDS011;17834;52.992;8.856;2022-12-16T04:38:13;31.38;;;13.77;;
31206;SDS011;17834;52.992;8.856;2022-12-16T04:40:57;33.30;;;15.85;;
31206;SDS011;17834;52.992;8.856;2022-12-16T04:43:42;22.47;;;11.07;;
31206;SDS011;17834;52.992;8.856;2022-12-16T04:46:27;30.63;;;15.60;;
31206;SDS011;17834;52.992;8.856;2022-12-16T04:49:11;32.10;;;15.23;;
31206;SDS011;17834;52.992;8.856;2022-12-16T04:51:56;35.20;;;14.95;;
31206;SDS011;17834;52.992;8.856;2022-12-16T04:54:41;32.38;;;15.63;;
31206;SDS011;17834;52.992;8.856;2022-12-16T04:57:25;30.42;;;15.65;;
31206;SDS011;17834;52.992;8.856;2022-12-16T05:00:10;34.83;;;13.93;;
31206;SDS011;17834;52.992;8.856;2022-12-16T05:02:55;33.37;;;17.10;;
31206;SDS011;17834;52.992;8.856;2022-12-16T05:05:40;33.78;;;14.07;;
31206;SDS011;17834;52.992;8.856;2022-12-16T05:08:24;35.10;;;14.02;;
31206;SDS011;17834;52.992;8.856;2022-12-16T05:11:09;25.98;;;12.80;;
31206;SDS011;17834;52.992;8.856;2022-12-16T05:13:53;30.60;;;13.98;;
31206;SDS011;17834;52.992;8.856;2022-12-16T05:16:38;26.58;;;14.40;;
31206;SDS011;17834;52.992;8.856;2022-12-16T05:19:23;28.15;;;14.82;;
31206;SDS011;17834;52.992;8.856;2022-12-16T05:22:07;23.67;;;12.32;;
31206;SDS011;17834;52.992;8.856;2022-12-16T05:24:52;32.75;;;14.98;;
31206;SDS011;17834;52.992;8.856;2022-12-16T05:27:36;32.15;;;14.05;;
31206;SDS011;17834;52.992;8.856;2022-12-16T05:30:21;35.30;;;15.18;;
31206;SDS011;17834;52.992;8.856;2022-12-16T05:33:05;33.63;;;15.32;;
31206;SDS011;17834;52.992;8.856;2022-12-16T05:35:50;32.47;;;15.57;;
31206;SDS011;17834;52.992;8.856;2022-12-16T05:38:34;37.95;;;17.45;;
31206;SDS011;17834;52.992;8.856;2022-12-16T05:41:19;28.35;;;14.02;;
31206;SDS011;17834;52.992;8.856;2022-12-16T05:44:04;29.45;;;13.73;;
31206;SDS011;17834;52.992;8.856;2022-12-16T05:46:48;32.03;;;13.75;;
31206;SDS011;17834;52.992;8.856;2022-12-16T05:49:33;27.23;;;11.85;;
31206;SDS011;17834;52.992;8.856;2022-12-16T05:52:18;33.20;;;14.95;;
31206;SDS011;17834;52.992;8.856;2022-12-16T05:55:03;23.65;;;13.02;;
31206;SDS011;17834;52.992;8.856;2022-12-16T05:57:49;27.33;;;14.57;;
31206;SDS011;17834;52.992;8.856;2022-12-16T06:00:34;30.25;;;12.77;;
31206;SDS011;17834;52.992;8.856;2022-12-16T06:03:26;25.42;;;11.95;;
31206;SDS011;17834;52.992;8.856;2022-12-16T06:06:11;33.23;;;13.93;;
31206;SDS011;17834;52.992;8.856;2022-12-16T06:08:55;32.40;;;13.32;;
31206;SDS011;17834;52.992;8.856;2022-12-16T06:11:40;23.33;;;12.40;;
31206;SDS011;17834;52.992;8.856;2022-12-16T06:14:25;28.80;;;14.10;;
31206;SDS011;17834;52.992;8.856;2022-12-16T06:17:09;28.58;;;12.75;;
31206;SDS011;17834;52.992;8.856;2022-12-16T06:19:53;29.42;;;12.98;;
31206;SDS011;17834;52.992;8.856;2022-12-16T06:22:38;27.55;;;12.63;;
31206;SDS011;17834;52.992;8.856;2022-12-16T06:25:23;31.15;;;14.23;;
31206;SDS011;17834;52.992;8.856;2022-12-16T06:28:07;33.20;;;15.23;;
31206;SDS011;17834;52.992;8.856;2022-12-16T06:30:51;31.50;;;13.50;;
31206;SDS011;17834;52.992;8.856;2022-12-16T06:33:36;28.27;;;12.80;;
31206;SDS011;17834;52.992;8.856;2022-12-16T06:36:21;28.02;;;13.55;;
31206;SDS011;17834;52.992;8.856;2022-12-16T06:39:05;31.17;;;13.43;;
31206;SDS011;17834;52.992;8.856;2022-12-16T06:41:50;28.58;;;13.75;;
31206;SDS011;17834;52.992;8.856;2022-12-16T06:44:34;27.30;;;13.52;;
31206;SDS011;17834;52.992;8.856;2022-12-16T06:47:19;32.58;;;14.20;;
31206;SDS011;17834;52.992;8.856;2022-12-16T06:50:04;34.42;;;14.95;;
31206;SDS011;17834;52.992;8.856;2022-12-16T06:52:48;31.02;;;14.73;;
31206;SDS011;17834;52.992;8.856;2022-12-16T06:55:33;27.70;;;13.00;;
31206;SDS011;17834;52.992;8.856;2022-12-16T06:58:18;31.63;;;16.35;;
31206;SDS011;17834;52.992;8.856;2022-12-16T07:01:02;28.65;;;14.18;;
31206;SDS011;17834;52.992;8.856;2022-12-16T07:03:47;31.67;;;13.70;;
31206;SDS011;17834;52.992;8.856;2022-12-16T07:06:31;33.40;;;13.20;;
31206;SDS011;17834;52.992;8.856;2022-12-16T07:09:16;32.50;;;13.82;;
31206;SDS011;17834;52.992;8.856;2022-12-16T07:12:02;25.02;;;12.80;;
31206;SDS011;17834;52.992;8.856;2022-12-16T07:14:47;34.75;;;15.50;;
31206;SDS011;17834;52.992;8.856;2022-12-16T07:17:45;33.60;;;16.35;;
31206;SDS011;17834;52.992;8.856;2022-12-16T07:20:30;30.27;;;15.25;;
31206;SDS011;17834;52.992;8.856;2022-12-16T07:23:15;41.85;;;16.80;;
31206;SDS011;17834;52.992;8.856;2022-12-16T07:25:59;41.75;;;14.40;;
31206;SDS011;17834;52.992;8.856;2022-12-16T07:28:44;32.97;;;15.88;;
31206;SDS011;17834;52.992;8.856;2022-12-16T07:31:29;40.20;;;16.60;;
31206;SDS011;17834;52.992;8.856;2022-12-16T07:34:13;32.38;;;14.68;;
31206;SDS011;17834;52.992;8.856;2022-12-16T07:36:58;33.80;;;15.25;;
31206;SDS011;17834;52.992;8.856;2022-12-16T07:39:43;30.90;;;14.35;;
31206;SDS011;17834;52.992;8.856;2022-12-16T07:42:27;31.42;;;14.85;;
31206;SDS011;17834;52.992;8.856;2022-12-16T07:45:12;37.22;;;15.38;;
31206;SDS011;17834;52.992;8.856;2022-12-16T07:47:56;33.22;;;13.68;;
31206;SDS011;17834;52.992;8.856;2022-12-16T07:50:41;26.50;;;14.30;;
31206;SDS011;17834;52.992;8.856;2022-12-16T07:53:25;31.65;;;14.93;;
31206;SDS011;17834;52.992;8.856;2022-12-16T07:56:10;30.50;;;14.77;;
31206;SDS011;17834;52.992;8.856;2022-12-16T07:58:55;41.88;;;16.35;;
31206;SDS011;17834;52.992;8.856;2022-12-16T08:01:40;34.85;;;14.95;;
31206;SDS011;17834;52.992;8.856;2022-12-16T08:04:25;34.92;;;14.50;;
31206;SDS011;17834;52.992;8.856;2022-12-16T08:07:09;35.13;;;15.10;;
31206;SDS011;17834;52.992;8.856;2022-12-16T08:09:54;36.90;;;16.13;;
31206;SDS011;17834;52.992;8.856;2022-12-16T08:12:39;32.13;;;14.45;;
31206;SDS011;17834;52.992;8.856;2022-12-16T08:15:23;33.40;;;15.98;;
31206;SDS011;17834;52.992;8.856;2022-12-16T08:18:08;31.48;;;14.90;;
31206;SDS011;17834;52.992;8.856;2022-12-16T08:20:52;33.05;;;15.25;;
31206;SDS011;17834;52.992;8.856;2022-12-16T08:23:37;31.33;;;14.13;;
31206;SDS011;17834;52.992;8.856;2022-12-16T08:26:22;33.72;;;14.60;;
31206;SDS011;17834;52.992;8.856;2022-12-16T08:29:06;39.90;;;16.05;;
31206;SDS011;17834;52.992;8.856;2022-12-16T08:31:51;42.28;;;16.27;;
31206;SDS011;17834;52.992;8.856;2022-12-16T08:34:35;31.48;;;14.38;;
31206;SDS011;17834;52.992;8.856;2022-12-16T08:37:20;39.28;;;15.63;;
31206;SDS011;17834;52.992;8.856;2022-12-16T08:40:05;34.88;;;15.52;;
31206;SDS011;17834;52.992;8.856;2022-12-16T08:42:50;37.83;;;16.92;;
31206;SDS011;17834;52.992;8.856;2022-12-16T08:45:34;37.28;;;15.30;;
31206;SDS011;17834;52.992;8.856;2022-12-16T08:48:19;32.10;;;15.55;;
31206;SDS011;17834;52.992;8.856;2022-12-16T08:51:04;38.53;;;15.77;;
31206;SDS011;17834;52.992;8.856;2022-12-16T08:53:49;36.50;;;16.02;;
31206;SDS011;17834;52.992;8.856;2022-12-16T08:56:34;36.67;;;17.50;;
31206;SDS011;17834;52.992;8.856;2022-12-16T08:59:19;34.70;;;15.13;;
31206;SDS011;17834;52.992;8.856;2022-12-16T09:02:03;29.30;;;14.75;;
31206;SDS011;17834;52.992;8.856;2022-12-16T09:04:48;38.15;;;16.35;;
31206;SDS011;17834;52.992;8.856;2022-12-16T09:07:33;33.25;;;15.63;;
31206;SDS011;17834;52.992;8.856;2022-12-16T09:10:18;38.22;;;15.57;;
31206;SDS011;17834;52.992;8.856;2022-12-16T09:13:20;31.83;;;15.15;;
31206;SDS011;17834;52.992;8.856;2022-12-16T09:16:05;35.55;;;15.63;;
31206;SDS011;17834;52.992;8.856;2022-12-16T09:18:50;37.08;;;16.80;;
31206;SDS011;17834;52.992;8.856;2022-12-16T09:21:34;37.03;;;15.60;;
31206;SDS011;17834;52.992;8.856;2022-12-16T09:24:19;31.83;;;14.38;;
31206;SDS011;17834;52.992;8.856;2022-12-16T09:27:04;34.20;;;17.45;;
31206;SDS011;17834;52.992;8.856;2022-12-16T09:29:48;37.50;;;16.58;;
31206;SDS011;17834;52.992;8.856;2022-12-16T09:32:33;36.25;;;16.33;;
31206;SDS011;17834;52.992;8.856;2022-12-16T09:35:18;30.77;;;15.48;;
31206;SDS011;17834;52.992;8.856;2022-12-16T09:38:02;34.55;;;15.80;;
31206;SDS011;17834;52.992;8.856;2022-12-16T09:40:47;37.53;;;17.58;;
31206;SDS011;17834;52.992;8.856;2022-12-16T09:49:20;43.65;;;18.23;;
31206;SDS011;17834;52.992;8.856;2022-12-16T09:52:07;38.35;;;17.13;;
31206;SDS011;17834;52.992;8.856;2022-12-16T09:54:56;34.72;;;15.10;;
31206;SDS011;17834;52.992;8.856;2022-12-16T09:57:41;39.67;;;16.13;;
31206;SDS011;17834;52.992;8.856;2022-12-16T10:00:26;38.15;;;14.82;;
31206;SDS011;17834;52.992;8.856;2022-12-16T10:03:19;45.95;;;16.35;;
31206;SDS011;17834;52.992;8.856;2022-12-16T10:06:16;35.88;;;15.05;;
31206;SDS011;17834;52.992;8.856;2022-12-16T10:09:09;36.08;;;14.88;;
31206;SDS011;17834;52.992;8.856;2022-12-16T10:14:51;34.80;;;14.35;;
31206;SDS011;17834;52.992;8.856;2022-12-16T10:17:40;34.28;;;14.55;;
31206;SDS011;17834;52.992;8.856;2022-12-16T10:20:40;34.17;;;14.93;;
31206;SDS011;17834;52.992;8.856;2022-12-16T10:23:33;35.97;;;16.42;;
31206;SDS011;17834;52.992;8.856;2022-12-16T10:26:21;33.35;;;14.98;;
31206;SDS011;17834;52.992;8.856;2022-12-16T10:29:14;36.60;;;14.43;;
31206;SDS011;17834;52.992;8.856;2022-12-16T10:32:04;36.15;;;16.17;;
31206;SDS011;17834;52.992;8.856;2022-12-16T10:34:49;34.33;;;15.82;;
31206;SDS011;17834;52.992;8.856;2022-12-16T10:37:37;37.13;;;17.80;;
31206;SDS011;17834;52.992;8.856;2022-12-16T10:40:24;40.45;;;16.83;;
31206;SDS011;17834;52.992;8.856;2022-12-16T10:43:13;30.95;;;16.58;;
31206;SDS011;17834;52.992;8.856;2022-12-16T10:45:59;37.80;;;16.58;;
31206;SDS011;17834;52.992;8.856;2022-12-16T10:48:45;41.10;;;17.60;;
31206;SDS011;17834;52.992;8.856;2022-12-16T10:51:30;51.78;;;22.23;;
31206;SDS011;17834;52.992;8.856;2022-12-16T10:57:02;44.03;;;20.48;;
31206;SDS011;17834;52.992;8.856;2022-12-16T10:59:52;51.67;;;23.10;;
31206;SDS011;17834;52.992;8.856;2022-12-16T11:02:51;41.45;;;19.67;;
31206;SDS011;17834;52.992;8.856;2022-12-16T11:05:36;49.50;;;21.05;;
31206;SDS011;17834;52.992;8.856;2022-12-16T11:08:22;47.78;;;20.33;;
31206;SDS011;17834;52.992;8.856;2022-12-16T11:11:14;39.00;;;19.20;;
31206;SDS011;17834;52.992;8.856;2022-12-16T11:14:14;35.63;;;18.08;;
31206;SDS011;17834;52.992;8.856;2022-12-16T11:17:19;49.53;;;19.90;;
31206;SDS011;17834;52.992;8.856;2022-12-16T11:23:08;38.05;;;18.23;;
31206;SDS011;17834;52.992;8.856;2022-12-16T11:26:03;37.58;;;17.55;;
31206;SDS011;17834;52.992;8.856;2022-12-16T11:34:55;36.65;;;17.10;;
31206;SDS011;17834;52.992;8.856;2022-12-16T11:37:41;36.33;;;16.13;;
31206;SDS011;17834;52.992;8.856;2022-12-16T11:40:28;41.42;;;17.48;;
31206;SDS011;17834;52.992;8.856;2022-12-16T11:43:13;40.53;;;17.73;;
31206;SDS011;17834;52.992;8.856;2022-12-16T11:48:53;34.10;;;14.60;;
31206;SDS011;17834;52.992;8.856;2022-12-16T11:51:39;36.03;;;16.60;;
31206;SDS011;17834;52.992;8.856;2022-12-16T11:54:25;41.17;;;16.60;;
31206;SDS011;17834;52.992;8.856;2022-12-16T11:57:18;38.53;;;17.58;;
31206;SDS011;17834;52.992;8.856;2022-12-16T12:00:05;34.10;;;16.17;;
31206;SDS011;17834;52.992;8.856;2022-12-16T12:05:57;43.42;;;17.10;;
31206;SDS011;17834;52.992;8.856;2022-12-16T12:08:53;46.78;;;16.73;;
31206;SDS011;17834;52.992;8.856;2022-12-16T12:12:07;41.28;;;17.85;;
31206;SDS011;17834;52.992;8.856;2022-12-16T12:14:52;38.00;;;18.17;;
31206;SDS011;17834;52.992;8.856;2022-12-16T12:23:24;40.47;;;17.60;;
31206;SDS011;17834;52.992;8.856;2022-12-16T12:26:15;42.15;;;18.92;;
31206;SDS011;17834;52.992;8.856;2022-12-16T12:35:40;41.47;;;19.75;;
31206;SDS011;17834;52.992;8.856;2022-12-16T12:38:11;41.83;;;18.83;;
31206;SDS011;17834;52.992;8.856;2022-12-16T12:41:02;35.20;;;18.35;;
31206;SDS011;17834;52.992;8.856;2022-12-16T12:49:28;37.60;;;18.67;;
31206;SDS011;17834;52.992;8.856;2022-12-16T12:52:27;38.97;;;18.48;;
31206;SDS011;17834;52.992;8.856;2022-12-16T12:55:19;45.58;;;19.77;;
31206;SDS011;17834;52.992;8.856;2022-12-16T12:58:07;36.15;;;17.92;;
31206;SDS011;17834;52.992;8.856;2022-12-16T13:00:54;40.50;;;18.10;;
31206;SDS011;17834;52.992;8.856;2022-12-16T13:03:42;38.40;;;19.27;;
31206;SDS011;17834;52.992;8.856;2022-12-16T13:06:29;35.50;;;17.88;;
31206;SDS011;17834;52.992;8.856;2022-12-16T13:09:36;39.65;;;18.30;;
31206;SDS011;17834;52.992;8.856;2022-12-16T13:12:29;38.97;;;19.85;;
31206;SDS011;17834;52.992;8.856;2022-12-16T13:15:18;37.95;;;17.90;;
31206;SDS011;17834;52.992;8.856;2022-12-16T13:20:48;44.38;;;19.38;;
31206;SDS011;17834;52.992;8.856;2022-12-16T13:23:34;38.73;;;18.50;;
31206;SDS011;17834;52.992;8.856;2022-12-16T13:26:22;42.55;;;20.17;;
31206;SDS011;17834;52.992;8.856;2022-12-16T13:35:14;35.28;;;18.05;;
31206;SDS011;17834;52.992;8.856;2022-12-16T13:43:45;39.78;;;18.67;;
31206;SDS011;17834;52.992;8.856;2022-12-16T13:49:38;37.33;;;18.02;;
31206;SDS011;17834;52.992;8.856;2022-12-16T13:55:47;44.72;;;19.45;;
31206;SDS011;17834;52.992;8.856;2022-12-16T13:58:40;37.20;;;18.08;;
31206;SDS011;17834;52.992;8.856;2022-12-16T14:02:12;41.45;;;18.67;;
31206;SDS011;17834;52.992;8.856;2022-12-16T14:04:31;42.88;;;18.85;;
31206;SDS011;17834;52.992;8.856;2022-12-16T14:07:17;42.92;;;18.60;;
31206;SDS011;17834;52.992;8.856;2022-12-16T14:10:04;39.42;;;18.77;;
31206;SDS011;17834;52.992;8.856;2022-12-16T14:18:27;31.90;;;16.42;;
31206;SDS011;17834;52.992;8.856;2022-12-16T14:21:16;35.55;;;19.00;;
31206;SDS011;17834;52.992;8.856;2022-12-16T14:24:04;40.60;;;18.48;;
31206;SDS011;17834;52.992;8.856;2022-12-16T14:26:50;40.92;;;18.52;;
31206;SDS011;17834;52.992;8.856;2022-12-16T14:29:36;39.23;;;18.57;;
31206;SDS011;17834;52.992;8.856;2022-12-16T14:32:33;36.15;;;17.70;;
31206;SDS011;17834;52.992;8.856;2022-12-16T14:41:18;47.63;;;20.52;;
31206;SDS011;17834;52.992;8.856;2022-12-16T14:44:04;41.90;;;18.83;;
31206;SDS011;17834;52.992;8.856;2022-12-16T14:46:49;39.55;;;19.30;;
31206;SDS011;17834;52.992;8.856;2022-12-16T14:49:35;35.83;;;17.23;;
31206;SDS011;17834;52.992;8.856;2022-12-16T14:52:20;42.13;;;18.83;;
31206;SDS011;17834;52.992;8.856;2022-12-16T14:55:13;32.13;;;16.13;;
31206;SDS011;17834;52.992;8.856;2022-12-16T14:58:07;39.25;;;17.73;;
31206;SDS011;17834;52.992;8.856;2022-12-16T15:00:52;39.28;;;17.73;;
31206;SDS011;17834;52.992;8.856;2022-12-16T15:03:38;38.83;;;16.20;;
31206;SDS011;17834;52.992;8.856;2022-12-16T15:06:31;37.38;;;17.48;;
31206;SDS011;17834;52.992;8.856;2022-12-16T15:09:23;43.47;;;16.45;;
31206;SDS011;17834;52.992;8.856;2022-12-16T15:12:08;35.55;;;18.15;;
31206;SDS011;17834;52.992;8.856;2022-12-16T15:14:54;34.33;;;18.52;;
31206;SDS011;17834;52.992;8.856;2022-12-16T15:17:43;35.55;;;18.83;;
31206;SDS011;17834;52.992;8.856;2022-12-16T15:20:30;33.53;;;17.05;;
31206;SDS011;17834;52.992;8.856;2022-12-16T15:26:05;35.17;;;17.20;;
31206;SDS011;17834;52.992;8.856;2022-12-16T15:28:50;37.27;;;17.93;;
31206;SDS011;17834;52.992;8.856;2022-12-16T15:31:36;40.80;;;18.58;;
31206;SDS011;17834;52.992;8.856;2022-12-16T15:34:22;34.60;;;16.92;;
31206;SDS011;17834;52.992;8.856;2022-12-16T15:37:50;39.00;;;16.92;;
31206;SDS011;17834;52.992;8.856;2022-12-16T15:40:19;33.80;;;16.40;;
31206;SDS011;17834;52.992;8.856;2022-12-16T15:43:20;35.60;;;17.60;;
31206;SDS011;17834;52.992;8.856;2022-12-16T15:46:05;42.28;;;19.08;;
31206;SDS011;17834;52.992;8.856;2022-12-16T15:48:50;36.78;;;17.13;;
31206;SDS011;17834;52.992;8.856;2022-12-16T15:51:41;39.80;;;17.53;;
31206;SDS011;17834;52.992;8.856;2022-12-16T15:54:26;40.10;;;18.77;;
31206;SDS011;17834;52.992;8.856;2022-12-16T16:00:24;38.25;;;16.73;;
31206;SDS011;17834;52.992;8.856;2022-12-16T16:03:20;39.90;;;15.98;;
31206;SDS011;17834;52.992;8.856;2022-12-16T16:06:16;39.55;;;18.58;;
31206;SDS011;17834;52.992;8.856;2022-12-16T16:09:14;46.88;;;20.23;;
31206;SDS011;17834;52.992;8.856;2022-12-16T16:11:59;35.50;;;17.98;;
31206;SDS011;17834;52.992;8.856;2022-12-16T16:14:44;42.47;;;18.75;;
31206;SDS011;17834;52.992;8.856;2022-12-16T16:17:28;44.08;;;17.58;;
31206;SDS011;17834;52.992;8.856;2022-12-16T16:20:14;32.90;;;17.00;;
31206;SDS011;17834;52.992;8.856;2022-12-16T16:22:59;38.95;;;16.90;;
31206;SDS011;17834;52.992;8.856;2022-12-16T16:25:44;30.60;;;16.55;;
31206;SDS011;17834;52.992;8.856;2022-12-16T16:28:30;40.83;;;17.77;;
31206;SDS011;17834;52.992;8.856;2022-12-16T16:31:14;25.90;;;14.63;;
31206;SDS011;17834;52.992;8.856;2022-12-16T16:33:59;35.45;;;17.38;;
31206;SDS011;17834;52.992;8.856;2022-12-16T16:36:50;40.63;;;18.70;;
31206;SDS011;17834;52.992;8.856;2022-12-16T16:39:35;38.38;;;18.90;;
31206;SDS011;17834;52.992;8.856;2022-12-16T16:42:20;37.60;;;18.45;;
31206;SDS011;17834;52.992;8.856;2022-12-16T16:45:05;37.50;;;17.10;;
31206;SDS011;17834;52.992;8.856;2022-12-16T16:47:51;38.88;;;17.17;;
31206;SDS011;17834;52.992;8.856;2022-12-16T16:53:21;36.92;;;18.40;;
31206;SDS011;17834;52.992;8.856;2022-12-16T16:56:06;39.53;;;18.13;;
31206;SDS011;17834;52.992;8.856;2022-12-16T16:58:52;39.22;;;18.33;;
31206;SDS011;17834;52.992;8.856;2022-12-16T17:01:36;38.63;;;18.85;;
31206;SDS011;17834;52.992;8.856;2022-12-16T17:04:21;45.92;;;19.70;;
31206;SDS011;17834;52.992;8.856;2022-12-16T17:07:06;42.55;;;18.38;;
31206;SDS011;17834;52.992;8.856;2022-12-16T17:09:50;39.13;;;19.17;;
31206;SDS011;17834;52.992;8.856;2022-12-16T17:12:35;41.97;;;21.40;;
31206;SDS011;17834;52.992;8.856;2022-12-16T17:15:21;43.58;;;20.38;;
31206;SDS011;17834;52.992;8.856;2022-12-16T17:18:06;43.17;;;21.67;;
31206;SDS011;17834;52.992;8.856;2022-12-16T17:20:51;46.97;;;20.83;;
31206;SDS011;17834;52.992;8.856;2022-12-16T17:23:36;49.67;;;23.10;;
31206;SDS011;17834;52.992;8.856;2022-12-16T17:26:22;49.53;;;21.83;;
31206;SDS011;17834;52.992;8.856;2022-12-16T17:29:17;56.33;;;22.90;;
31206;SDS011;17834;52.992;8.856;2022-12-16T17:32:02;50.03;;;26.37;;
31206;SDS011;17834;52.992;8.856;2022-12-16T17:34:47;70.40;;;32.80;;
31206;SDS011;17834;52.992;8.856;2022-12-16T17:37:32;62.83;;;29.90;;
31206;SDS011;17834;52.992;8.856;2022-12-16T17:40:16;56.75;;;27.92;;
31206;SDS011;17834;52.992;8.856;2022-12-16T17:43:01;78.35;;;30.45;;
31206;SDS011;17834;52.992;8.856;2022-12-16T17:45:59;69.80;;;29.88;;